Startpagina
METAR-TAF:

METAR-TAF

Vliegvelden :

Pardubice, Tsjechië

breedte: 50-00-48N, lengte: 15-44-19E, hoogte: 226 m

Actueel weer

Dit bericht is 58 minuten geleden gemaakt, om 17:00 UTC
Wind 1 kt uit variabele richting
Temperatuur 11°C
Vochtigheid 82%
Druk 1022 hPa
Zicht 10 km of meer
Geheel bewolkt op 2200 ft

METAR: LKPD 121700Z VRB01KT 9999 OVC022 11/08 Q1022 RMK BLACK

Tijdstip: 18:58 (17:58 UTC)


TAF: ontbreekt

Waarnemingen en weersverwachtingen van meer dan 4000 vliegvelden (METAR en TAF).

De beschikbare stations zijn de gele en rode punten op de kaart.

Ga met uw muis naar het station om de naam te zien.

Klik dan om waarnemingen en weersverwachtingen te zien.

kaart wijzigen: klik op de groene knoppen met een zwart kruis om in te zoomen, op de groene knop met een streepje om uit te zoomen of op de groene pijlen voor aangrenzende kaarten.


METAR-TAF: